sensor_id;sensor_type;location;lat;lon;timestamp;pressure;altitude;pressure_sealevel;temperature;humidity
51603;BME280;37954;51.980;5.850;2023-02-18T00:01:17;101836.03;;;10.68;95.76
51603;BME280;37954;51.980;5.850;2023-02-18T00:05:29;101841.09;;;10.84;95.85
51603;BME280;37954;51.980;5.850;2023-02-18T00:09:41;101841.69;;;10.79;95.70
51603;BME280;37954;51.980;5.850;2023-02-18T00:13:55;101840.84;;;10.79;95.86
51603;BME280;37954;51.980;5.850;2023-02-18T00:18:07;101814.72;;;10.66;96.11
51603;BME280;37954;51.980;5.850;2023-02-18T00:22:19;101822.94;;;10.58;96.00
51603;BME280;37954;51.980;5.850;2023-02-18T00:26:31;101837.88;;;10.67;95.95
51603;BME280;37954;51.980;5.850;2023-02-18T00:30:43;101819.81;;;10.55;96.02
51603;BME280;37954;51.980;5.850;2023-02-18T00:34:54;101839.69;;;10.60;96.63
51603;BME280;37954;51.980;5.850;2023-02-18T00:39:08;101845.56;;;10.70;96.75
51603;BME280;37954;51.980;5.850;2023-02-18T00:43:20;101828.94;;;10.60;96.97
51603;BME280;37954;51.980;5.850;2023-02-18T00:47:32;101807.84;;;10.57;96.99
51603;BME280;37954;51.980;5.850;2023-02-18T00:51:44;101783.81;;;10.49;97.34
51603;BME280;37954;51.980;5.850;2023-02-18T00:55:56;101787.78;;;10.53;97.70
51603;BME280;37954;51.980;5.850;2023-02-18T01:00:09;101797.72;;;10.59;97.82
51603;BME280;37954;51.980;5.850;2023-02-18T01:04:21;101802.25;;;10.59;97.94
51603;BME280;37954;51.980;5.850;2023-02-18T01:08:34;101795.03;;;10.59;97.93
51603;BME280;37954;51.980;5.850;2023-02-18T01:12:46;101780.75;;;10.52;97.75
51603;BME280;37954;51.980;5.850;2023-02-18T01:16:58;101796.25;;;10.57;98.19
51603;BME280;37954;51.980;5.850;2023-02-18T01:21:09;101808.91;;;10.63;97.81
51603;BME280;37954;51.980;5.850;2023-02-18T01:25:21;101768.94;;;10.46;98.26
51603;BME280;37954;51.980;5.850;2023-02-18T01:29:33;101797.53;;;10.61;98.09
51603;BME280;37954;51.980;5.850;2023-02-18T01:33:45;101795.88;;;10.60;98.20
51603;BME280;37954;51.980;5.850;2023-02-18T01:37:57;101778.53;;;10.62;98.39
51603;BME280;37954;51.980;5.850;2023-02-18T01:42:21;101779.16;;;10.64;98.55
51603;BME280;37954;51.980;5.850;2023-02-18T01:46:33;101779.41;;;10.69;98.01
51603;BME280;37954;51.980;5.850;2023-02-18T01:55:26;101772.19;;;10.76;98.41
51603;BME280;37954;51.980;5.850;2023-02-18T01:59:42;101762.66;;;10.67;98.27
51603;BME280;37954;51.980;5.850;2023-02-18T02:03:54;101747.94;;;10.63;98.02
51603;BME280;37954;51.980;5.850;2023-02-18T02:08:06;101758.53;;;10.71;98.15
51603;BME280;37954;51.980;5.850;2023-02-18T02:21:47;101735.38;;;10.77;98.38
51603;BME280;37954;51.980;5.850;2023-02-18T02:30:39;101687.22;;;10.69;98.08
51603;BME280;37954;51.980;5.850;2023-02-18T02:39:20;101685.56;;;10.74;98.32
51603;BME280;37954;51.980;5.850;2023-02-18T02:43:47;101678.31;;;10.75;98.68
51603;BME280;37954;51.980;5.850;2023-02-18T02:52:21;101651.25;;;10.76;98.89
51603;BME280;37954;51.980;5.850;2023-02-18T02:56:36;101647.13;;;10.80;99.03
51603;BME280;37954;51.980;5.850;2023-02-18T03:01:18;101642.63;;;10.88;99.33
51603;BME280;37954;51.980;5.850;2023-02-18T03:14:26;101604.78;;;10.89;100.00
51603;BME280;37954;51.980;5.850;2023-02-18T03:18:47;101607.66;;;10.94;99.92
51603;BME280;37954;51.980;5.850;2023-02-18T03:23:04;101569.00;;;10.82;100.00
51603;BME280;37954;51.980;5.850;2023-02-18T03:27:34;101571.25;;;10.92;100.00
51603;BME280;37954;51.980;5.850;2023-02-18T03:31:53;101574.56;;;10.94;100.00
51603;BME280;37954;51.980;5.850;2023-02-18T03:36:08;101569.00;;;10.95;100.00
51603;BME280;37954;51.980;5.850;2023-02-18T03:40:21;101572.94;;;10.99;100.00
51603;BME280;37954;51.980;5.850;2023-02-18T03:44:33;101544.81;;;10.89;100.00
51603;BME280;37954;51.980;5.850;2023-02-18T03:48:44;101548.13;;;10.97;100.00
51603;BME280;37954;51.980;5.850;2023-02-18T03:52:57;101540.06;;;10.97;100.00
51603;BME280;37954;51.980;5.850;2023-02-18T03:57:10;101527.66;;;11.03;100.00
51603;BME280;37954;51.980;5.850;2023-02-18T04:01:22;101514.19;;;10.96;100.00
51603;BME280;37954;51.980;5.850;2023-02-18T04:05:34;101523.72;;;10.99;100.00
51603;BME280;37954;51.980;5.850;2023-02-18T04:09:47;101508.22;;;11.01;100.00
51603;BME280;37954;51.980;5.850;2023-02-18T04:13:58;101496.22;;;10.97;100.00
51603;BME280;37954;51.980;5.850;2023-02-18T04:18:10;101483.59;;;10.97;100.00
51603;BME280;37954;51.980;5.850;2023-02-18T04:22:22;101497.88;;;11.04;100.00
51603;BME280;37954;51.980;5.850;2023-02-18T04:26:33;101486.91;;;10.99;100.00
51603;BME280;37954;51.980;5.850;2023-02-18T04:30:46;101497.03;;;11.10;100.00
51603;BME280;37954;51.980;5.850;2023-02-18T04:34:58;101499.75;;;11.04;100.00
51603;BME280;37954;51.980;5.850;2023-02-18T04:39:10;101490.00;;;11.03;100.00
51603;BME280;37954;51.980;5.850;2023-02-18T04:43:22;101472.00;;;10.97;100.00
51603;BME280;37954;51.980;5.850;2023-02-18T04:47:34;101466.22;;;11.00;100.00
51603;BME280;37954;51.980;5.850;2023-02-18T04:51:45;101478.22;;;11.04;100.00
51603;BME280;37954;51.980;5.850;2023-02-18T04:55:57;101468.09;;;10.99;100.00
51603;BME280;37954;51.980;5.850;2023-02-18T05:00:13;101466.03;;;11.01;100.00
51603;BME280;37954;51.980;5.850;2023-02-18T05:04:25;101441.41;;;10.98;100.00
51603;BME280;37954;51.980;5.850;2023-02-18T05:08:37;101432.72;;;10.96;100.00
51603;BME280;37954;51.980;5.850;2023-02-18T05:12:49;101429.00;;;10.97;100.00
51603;BME280;37954;51.980;5.850;2023-02-18T05:17:00;101426.72;;;11.00;100.00
51603;BME280;37954;51.980;5.850;2023-02-18T05:21:12;101413.53;;;10.86;100.00
51603;BME280;37954;51.980;5.850;2023-02-18T05:25:24;101407.53;;;10.84;100.00
51603;BME280;37954;51.980;5.850;2023-02-18T05:29:35;101438.31;;;11.01;100.00
51603;BME280;37954;51.980;5.850;2023-02-18T05:33:47;101429.63;;;10.99;100.00
51603;BME280;37954;51.980;5.850;2023-02-18T05:37:59;101430.66;;;10.98;100.00
51603;BME280;37954;51.980;5.850;2023-02-18T05:42:10;101417.84;;;10.93;100.00
51603;BME280;37954;51.980;5.850;2023-02-18T05:46:22;101429.84;;;10.97;100.00
51603;BME280;37954;51.980;5.850;2023-02-18T05:50:34;101423.84;;;10.95;100.00
51603;BME280;37954;51.980;5.850;2023-02-18T05:54:47;101407.53;;;10.90;100.00
51603;BME280;37954;51.980;5.850;2023-02-18T05:58:59;101406.69;;;10.90;100.00
51603;BME280;37954;51.980;5.850;2023-02-18T06:03:10;101391.59;;;10.89;100.00
51603;BME280;37954;51.980;5.850;2023-02-18T06:07:22;101398.00;;;10.88;100.00
51603;BME280;37954;51.980;5.850;2023-02-18T06:11:34;101398.44;;;10.85;100.00
51603;BME280;37954;51.980;5.850;2023-02-18T06:15:49;101386.66;;;10.79;100.00
51603;BME280;37954;51.980;5.850;2023-02-18T06:20:01;101397.59;;;10.84;100.00
51603;BME280;37954;51.980;5.850;2023-02-18T06:24:12;101403.38;;;10.81;100.00
51603;BME280;37954;51.980;5.850;2023-02-18T06:28:24;101410.22;;;10.84;100.00
51603;BME280;37954;51.980;5.850;2023-02-18T06:32:36;101414.97;;;10.88;100.00
51603;BME280;37954;51.980;5.850;2023-02-18T06:36:47;101402.56;;;10.80;100.00
51603;BME280;37954;51.980;5.850;2023-02-18T06:41:00;101400.69;;;10.74;100.00
51603;BME280;37954;51.980;5.850;2023-02-18T06:45:12;101409.59;;;10.81;100.00
51603;BME280;37954;51.980;5.850;2023-02-18T06:49:23;101391.41;;;10.70;100.00
51603;BME280;37954;51.980;5.850;2023-02-18T06:53:35;101406.69;;;10.76;100.00
51603;BME280;37954;51.980;5.850;2023-02-18T06:57:47;101404.03;;;10.70;100.00
51603;BME280;37954;51.980;5.850;2023-02-18T07:01:58;101410.63;;;10.74;100.00
51603;BME280;37954;51.980;5.850;2023-02-18T07:06:10;101396.38;;;10.60;100.00
51603;BME280;37954;51.980;5.850;2023-02-18T07:10:22;101406.09;;;10.68;100.00
51603;BME280;37954;51.980;5.850;2023-02-18T07:14:34;101399.88;;;10.67;100.00
51603;BME280;37954;51.980;5.850;2023-02-18T07:18:45;101394.50;;;10.67;100.00
51603;BME280;37954;51.980;5.850;2023-02-18T07:22:57;101393.91;;;10.65;100.00
51603;BME280;37954;51.980;5.850;2023-02-18T07:27:09;101394.31;;;10.56;100.00
51603;BME280;37954;51.980;5.850;2023-02-18T07:31:20;101406.50;;;10.65;100.00
51603;BME280;37954;51.980;5.850;2023-02-18T07:35:32;101402.38;;;10.62;100.00
51603;BME280;37954;51.980;5.850;2023-02-18T07:39:44;101409.41;;;10.70;100.00
51603;BME280;37954;51.980;5.850;2023-02-18T07:43:56;101398.25;;;10.66;100.00
51603;BME280;37954;51.980;5.850;2023-02-18T07:48:07;101397.00;;;10.69;100.00
51603;BME280;37954;51.980;5.850;2023-02-18T07:52:19;101412.88;;;10.77;100.00
51603;BME280;37954;51.980;5.850;2023-02-18T07:56:31;101411.47;;;10.68;100.00
51603;BME280;37954;51.980;5.850;2023-02-18T08:00:43;101404.22;;;10.62;100.00
51603;BME280;37954;51.980;5.850;2023-02-18T08:04:54;101371.78;;;10.50;100.00
51603;BME280;37954;51.980;5.850;2023-02-18T08:09:06;101397.63;;;10.64;100.00
51603;BME280;37954;51.980;5.850;2023-02-18T08:13:18;101427.97;;;10.58;100.00
51603;BME280;37954;51.980;5.850;2023-02-18T08:17:30;101409.59;;;10.62;100.00
51603;BME280;37954;51.980;5.850;2023-02-18T08:21:42;101405.47;;;10.59;100.00
51603;BME280;37954;51.980;5.850;2023-02-18T08:25:53;101405.25;;;10.61;100.00
51603;BME280;37954;51.980;5.850;2023-02-18T08:30:05;101424.69;;;10.63;100.00
51603;BME280;37954;51.980;5.850;2023-02-18T08:34:17;101403.59;;;10.46;99.86
51603;BME280;37954;51.980;5.850;2023-02-18T08:38:29;101423.63;;;10.57;99.93
51603;BME280;37954;51.980;5.850;2023-02-18T08:42:41;101422.41;;;10.60;99.37
51603;BME280;37954;51.980;5.850;2023-02-18T08:46:52;101431.50;;;10.65;98.77
51603;BME280;37954;51.980;5.850;2023-02-18T08:51:18;101425.72;;;10.55;98.42
51603;BME280;37954;51.980;5.850;2023-02-18T08:55:33;101439.34;;;10.60;98.17
51603;BME280;37954;51.980;5.850;2023-02-18T08:59:45;101439.38;;;10.54;98.08
51603;BME280;37954;51.980;5.850;2023-02-18T09:03:56;101436.69;;;10.54;97.56
51603;BME280;37954;51.980;5.850;2023-02-18T09:08:08;101428.81;;;10.39;97.48
51603;BME280;37954;51.980;5.850;2023-02-18T09:12:20;101424.88;;;10.41;97.54
51603;BME280;37954;51.980;5.850;2023-02-18T09:16:31;101433.97;;;10.34;97.40
51603;BME280;37954;51.980;5.850;2023-02-18T09:20:43;101416.59;;;10.23;97.76
51603;BME280;37954;51.980;5.850;2023-02-18T09:24:55;101420.88;;;10.11;98.25
51603;BME280;37954;51.980;5.850;2023-02-18T09:29:06;101435.59;;;10.22;98.35
51603;BME280;37954;51.980;5.850;2023-02-18T09:33:18;101432.47;;;10.18;98.37
51603;BME280;37954;51.980;5.850;2023-02-18T09:37:30;101437.47;;;10.21;98.77
51603;BME280;37954;51.980;5.850;2023-02-18T09:41:44;101442.59;;;10.23;98.86
51603;BME280;37954;51.980;5.850;2023-02-18T09:45:58;101428.16;;;10.24;98.99
51603;BME280;37954;51.980;5.850;2023-02-18T09:50:29;101446.97;;;10.30;99.44
51603;BME280;37954;51.980;5.850;2023-02-18T09:54:42;101415.53;;;10.18;99.25
51603;BME280;37954;51.980;5.850;2023-02-18T09:58:57;101423.81;;;10.23;99.06
51603;BME280;37954;51.980;5.850;2023-02-18T10:03:19;101455.88;;;10.37;98.85
51603;BME280;37954;51.980;5.850;2023-02-18T10:07:32;101448.63;;;10.31;98.72
51603;BME280;37954;51.980;5.850;2023-02-18T10:11:50;101458.38;;;10.39;98.18
51603;BME280;37954;51.980;5.850;2023-02-18T10:16:02;101473.88;;;10.50;97.93
51603;BME280;37954;51.980;5.850;2023-02-18T10:20:22;101448.84;;;10.36;97.65
51603;BME280;37954;51.980;5.850;2023-02-18T10:24:49;101471.59;;;10.47;97.48
51603;BME280;37954;51.980;5.850;2023-02-18T10:29:02;101487.09;;;10.52;97.35
51603;BME280;37954;51.980;5.850;2023-02-18T10:42:44;101460.81;;;10.40;97.52
51603;BME280;37954;51.980;5.850;2023-02-18T10:47:14;101476.56;;;10.50;97.51
51603;BME280;37954;51.980;5.850;2023-02-18T10:51:33;101494.56;;;10.56;97.37
51603;BME280;37954;51.980;5.850;2023-02-18T10:55:46;101488.53;;;10.48;97.41
51603;BME280;37954;51.980;5.850;2023-02-18T11:00:23;101494.31;;;10.44;97.49
51603;BME280;37954;51.980;5.850;2023-02-18T11:04:41;101485.22;;;10.45;98.09
51603;BME280;37954;51.980;5.850;2023-02-18T11:08:55;101486.69;;;10.55;98.18
51603;BME280;37954;51.980;5.850;2023-02-18T11:13:30;101494.94;;;10.60;98.49
51603;BME280;37954;51.980;5.850;2023-02-18T11:17:49;101485.44;;;10.57;98.04
51603;BME280;37954;51.980;5.850;2023-02-18T11:22:17;101481.31;;;10.61;98.37
51603;BME280;37954;51.980;5.850;2023-02-18T11:26:32;101486.91;;;10.79;98.03
51603;BME280;37954;51.980;5.850;2023-02-18T11:30:47;101488.38;;;10.89;97.84
51603;BME280;37954;51.980;5.850;2023-02-18T11:35:02;101473.28;;;10.88;97.04
51603;BME280;37954;51.980;5.850;2023-02-18T11:39:25;101476.56;;;10.96;96.54
51603;BME280;37954;51.980;5.850;2023-02-18T11:43:44;101485.06;;;11.00;96.59
51603;BME280;37954;51.980;5.850;2023-02-18T11:48:01;101475.97;;;11.07;96.41
51603;BME280;37954;51.980;5.850;2023-02-18T11:52:25;101477.81;;;11.07;96.06
51603;BME280;37954;51.980;5.850;2023-02-18T11:56:37;101465.19;;;11.07;95.97
51603;BME280;37954;51.980;5.850;2023-02-18T12:00:50;101483.59;;;11.17;95.95
51603;BME280;37954;51.980;5.850;2023-02-18T12:05:15;101476.34;;;11.24;95.35
51603;BME280;37954;51.980;5.850;2023-02-18T12:09:32;101475.91;;;11.34;95.46
51603;BME280;37954;51.980;5.850;2023-02-18T12:13:51;101485.38;;;11.43;95.34
51603;BME280;37954;51.980;5.850;2023-02-18T12:36:43;101480.91;;;11.17;96.19
51603;BME280;37954;51.980;5.850;2023-02-18T12:45:36;101481.50;;;11.39;96.27
51603;BME280;37954;51.980;5.850;2023-02-18T13:12:12;101502.16;;;11.58;94.56
51603;BME280;37954;51.980;5.850;2023-02-18T13:16:25;101483.31;;;11.51;94.39
51603;BME280;37954;51.980;5.850;2023-02-18T13:20:51;101480.41;;;11.53;93.98
51603;BME280;37954;51.980;5.850;2023-02-18T13:25:11;101476.88;;;11.59;93.83
51603;BME280;37954;51.980;5.850;2023-02-18T13:29:31;101475.81;;;11.73;94.10
51603;BME280;37954;51.980;5.850;2023-02-18T13:33:59;101464.66;;;11.76;93.21
51603;BME280;37954;51.980;5.850;2023-02-18T13:42:38;101463.56;;;11.84;92.19
51603;BME280;37954;51.980;5.850;2023-02-18T13:46:55;101464.00;;;11.74;92.13
51603;BME280;37954;51.980;5.850;2023-02-18T13:51:08;101454.88;;;11.75;91.82
51603;BME280;37954;51.980;5.850;2023-02-18T13:55:25;101490.00;;;12.00;91.69
51603;BME280;37954;51.980;5.850;2023-02-18T13:59:49;101477.16;;;11.96;91.48
51603;BME280;37954;51.980;5.850;2023-02-18T14:04:02;101468.53;;;11.87;91.23
51603;BME280;37954;51.980;5.850;2023-02-18T14:08:33;101474.31;;;11.91;91.44
51603;BME280;37954;51.980;5.850;2023-02-18T14:21:40;101479.84;;;12.02;91.26
51603;BME280;37954;51.980;5.850;2023-02-18T14:25:52;101491.44;;;12.03;90.92
51603;BME280;37954;51.980;5.850;2023-02-18T14:44:08;101486.94;;;11.90;90.65
51603;BME280;37954;51.980;5.850;2023-02-18T14:53:26;101501.44;;;11.89;90.51
51603;BME280;37954;51.980;5.850;2023-02-18T14:57:43;101487.97;;;11.89;90.44
51603;BME280;37954;51.980;5.850;2023-02-18T15:01:57;101510.91;;;11.98;90.06
51603;BME280;37954;51.980;5.850;2023-02-18T15:06:22;101502.63;;;12.00;90.31
51603;BME280;37954;51.980;5.850;2023-02-18T15:10:41;101495.66;;;11.85;90.25
51603;BME280;37954;51.980;5.850;2023-02-18T15:14:57;101500.41;;;11.90;90.04
51603;BME280;37954;51.980;5.850;2023-02-18T15:19:16;101498.13;;;11.94;90.09
51603;BME280;37954;51.980;5.850;2023-02-18T15:23:30;101502.69;;;11.93;90.21
51603;BME280;37954;51.980;5.850;2023-02-18T15:27:42;101503.25;;;11.95;89.84
51603;BME280;37954;51.980;5.850;2023-02-18T15:31:57;101518.38;;;12.03;90.05
51603;BME280;37954;51.980;5.850;2023-02-18T15:36:13;101488.41;;;11.86;89.91
51603;BME280;37954;51.980;5.850;2023-02-18T15:40:29;101508.88;;;11.94;89.62
51603;BME280;37954;51.980;5.850;2023-02-18T15:44:47;101507.66;;;11.90;89.97
51603;BME280;37954;51.980;5.850;2023-02-18T16:43:53;101527.78;;;11.61;90.10
51603;BME280;37954;51.980;5.850;2023-02-18T16:48:05;101514.56;;;11.52;90.56
51603;BME280;37954;51.980;5.850;2023-02-18T16:52:22;101514.97;;;11.49;90.33
51603;BME280;37954;51.980;5.850;2023-02-18T16:56:33;101533.59;;;11.58;90.83
51603;BME280;37954;51.980;5.850;2023-02-18T17:00:47;101526.97;;;11.54;90.59
51603;BME280;37954;51.980;5.850;2023-02-18T17:05:00;101543.72;;;11.62;90.59
51603;BME280;37954;51.980;5.850;2023-02-18T17:09:19;101530.09;;;11.57;90.63
51603;BME280;37954;51.980;5.850;2023-02-18T17:13:32;101532.56;;;11.52;90.77
51603;BME280;37954;51.980;5.850;2023-02-18T17:17:44;101508.19;;;11.34;90.92
51603;BME280;37954;51.980;5.850;2023-02-18T17:21:55;101543.13;;;11.54;91.22
51603;BME280;37954;51.980;5.850;2023-02-18T17:30:28;101546.66;;;11.54;91.24
51603;BME280;37954;51.980;5.850;2023-02-18T17:34:41;101551.00;;;11.55;91.22
51603;BME280;37954;51.980;5.850;2023-02-18T17:38:52;101543.75;;;11.56;91.34
51603;BME280;37954;51.980;5.850;2023-02-18T17:43:04;101538.38;;;11.56;91.20
51603;BME280;37954;51.980;5.850;2023-02-18T17:47:16;101526.56;;;11.50;91.18
51603;BME280;37954;51.980;5.850;2023-02-18T17:51:28;101529.66;;;11.47;91.42
51603;BME280;37954;51.980;5.850;2023-02-18T17:55:41;101518.72;;;11.42;91.44
51603;BME280;37954;51.980;5.850;2023-02-18T17:59:53;101526.97;;;11.47;91.41
51603;BME280;37954;51.980;5.850;2023-02-18T18:04:17;101524.50;;;11.45;91.82
51603;BME280;37954;51.980;5.850;2023-02-18T18:08:29;101531.75;;;11.45;91.78
51603;BME280;37954;51.980;5.850;2023-02-18T18:12:41;101543.13;;;11.47;91.64
51603;BME280;37954;51.980;5.850;2023-02-18T18:16:53;101531.56;;;11.40;91.82
51603;BME280;37954;51.980;5.850;2023-02-18T18:21:05;101526.81;;;11.42;91.94
51603;BME280;37954;51.980;5.850;2023-02-18T18:25:25;101529.72;;;11.40;91.72
51603;BME280;37954;51.980;5.850;2023-02-18T18:29:37;101533.00;;;11.36;92.05
51603;BME280;37954;51.980;5.850;2023-02-18T18:33:50;101550.19;;;11.41;92.14
51603;BME280;37954;51.980;5.850;2023-02-18T18:38:04;101537.34;;;11.37;92.13
51603;BME280;37954;51.980;5.850;2023-02-18T18:42:15;101532.19;;;11.35;92.11
51603;BME280;37954;51.980;5.850;2023-02-18T18:46:27;101529.91;;;11.32;92.61
51603;BME280;37954;51.980;5.850;2023-02-18T18:50:38;101541.28;;;11.34;92.71
51603;BME280;37954;51.980;5.850;2023-02-18T18:54:52;101535.06;;;11.34;92.46
51603;BME280;37954;51.980;5.850;2023-02-18T18:59:03;101539.00;;;11.38;92.55
51603;BME280;37954;51.980;5.850;2023-02-18T19:03:15;101540.88;;;11.37;92.44
51603;BME280;37954;51.980;5.850;2023-02-18T19:07:27;101517.91;;;11.28;92.68
51603;BME280;37954;51.980;5.850;2023-02-18T19:11:39;101522.25;;;11.36;93.06
51603;BME280;37954;51.980;5.850;2023-02-18T19:16:17;101530.13;;;11.37;93.44
51603;BME280;37954;51.980;5.850;2023-02-18T19:20:31;101529.91;;;11.32;93.48
51603;BME280;37954;51.980;5.850;2023-02-18T19:24:43;101515.03;;;11.23;94.13
51603;BME280;37954;51.980;5.850;2023-02-18T19:28:55;101516.69;;;11.24;94.21
51603;BME280;37954;51.980;5.850;2023-02-18T19:33:07;101513.56;;;11.14;94.35
51603;BME280;37954;51.980;5.850;2023-02-18T19:37:20;101522.88;;;11.18;94.85
51603;BME280;37954;51.980;5.850;2023-02-18T19:41:36;101516.25;;;11.14;95.18
51603;BME280;37954;51.980;5.850;2023-02-18T19:45:48;101501.16;;;11.13;95.37
51603;BME280;37954;51.980;5.850;2023-02-18T19:50:00;101499.31;;;11.13;95.61
51603;BME280;37954;51.980;5.850;2023-02-18T19:54:12;101507.16;;;11.15;95.39
51603;BME280;37954;51.980;5.850;2023-02-18T19:58:24;101480.72;;;11.05;95.21
51603;BME280;37954;51.980;5.850;2023-02-18T20:02:36;101498.69;;;11.18;95.40
51603;BME280;37954;51.980;5.850;2023-02-18T20:06:49;101483.59;;;11.10;95.71
51603;BME280;37954;51.980;5.850;2023-02-18T20:11:01;101484.19;;;11.12;95.62
51603;BME280;37954;51.980;5.850;2023-02-18T20:15:13;101475.53;;;11.17;95.86
51603;BME280;37954;51.980;5.850;2023-02-18T20:19:26;101433.13;;;10.99;95.60
51603;BME280;37954;51.980;5.850;2023-02-18T20:23:41;101440.16;;;11.00;95.72
51603;BME280;37954;51.980;5.850;2023-02-18T20:27:52;101455.44;;;11.13;95.76
51603;BME280;37954;51.980;5.850;2023-02-18T20:32:11;101449.25;;;11.12;95.88
51603;BME280;37954;51.980;5.850;2023-02-18T20:36:23;101460.41;;;11.16;96.48
51603;BME280;37954;51.980;5.850;2023-02-18T20:40:35;101450.50;;;11.10;96.59
51603;BME280;37954;51.980;5.850;2023-02-18T20:44:47;101448.84;;;11.02;96.65
51603;BME280;37954;51.980;5.850;2023-02-18T20:48:59;101439.13;;;11.01;97.25
51603;BME280;37954;51.980;5.850;2023-02-18T20:53:11;101419.50;;;11.01;97.26
51603;BME280;37954;51.980;5.850;2023-02-18T20:57:23;101410.19;;;10.97;97.57
51603;BME280;37954;51.980;5.850;2023-02-18T21:01:34;101429.41;;;11.00;97.70
51603;BME280;37954;51.980;5.850;2023-02-18T21:05:56;101437.50;;;11.00;97.94
51603;BME280;37954;51.980;5.850;2023-02-18T21:10:08;101433.56;;;10.96;97.78
51603;BME280;37954;51.980;5.850;2023-02-18T21:14:20;101428.78;;;10.92;98.32
51603;BME280;37954;51.980;5.850;2023-02-18T21:18:32;101439.53;;;10.92;98.34
51603;BME280;37954;51.980;5.850;2023-02-18T21:22:44;101443.88;;;10.93;98.60
51603;BME280;37954;51.980;5.850;2023-02-18T21:26:56;101437.47;;;10.94;98.24
51603;BME280;37954;51.980;5.850;2023-02-18T21:31:23;101431.72;;;10.90;98.89
51603;BME280;37954;51.980;5.850;2023-02-18T21:35:36;101409.19;;;10.85;98.93
51603;BME280;37954;51.980;5.850;2023-02-18T21:39:48;101416.19;;;10.92;98.76
51603;BME280;37954;51.980;5.850;2023-02-18T21:44:00;101405.47;;;10.86;98.67
51603;BME280;37954;51.980;5.850;2023-02-18T21:48:13;101398.00;;;10.88;98.96
51603;BME280;37954;51.980;5.850;2023-02-18T21:52:43;101408.31;;;10.97;99.13
51603;BME280;37954;51.980;5.850;2023-02-18T21:56:55;101378.56;;;10.92;99.02
51603;BME280;37954;51.980;5.850;2023-02-18T22:01:33;101387.22;;;11.01;99.49
51603;BME280;37954;51.980;5.850;2023-02-18T22:05:45;101388.69;;;10.97;99.58
51603;BME280;37954;51.980;5.850;2023-02-18T22:09:56;101386.41;;;11.00;99.29
51603;BME280;37954;51.980;5.850;2023-02-18T22:14:12;101375.66;;;10.94;99.26
51603;BME280;37954;51.980;5.850;2023-02-18T22:18:24;101386.41;;;10.94;99.43
51603;BME280;37954;51.980;5.850;2023-02-18T22:22:36;101397.38;;;10.99;99.92
51603;BME280;37954;51.980;5.850;2023-02-18T22:26:48;101400.47;;;11.02;99.72
51603;BME280;37954;51.980;5.850;2023-02-18T22:31:11;101386.81;;;10.97;99.65
51603;BME280;37954;51.980;5.850;2023-02-18T22:35:23;101392.41;;;10.96;99.55
51603;BME280;37954;51.980;5.850;2023-02-18T22:39:35;101394.69;;;10.99;99.72
51603;BME280;37954;51.980;5.850;2023-02-18T22:43:47;101390.97;;;11.00;99.50
51603;BME280;37954;51.980;5.850;2023-02-18T22:47:59;101365.56;;;10.76;99.27
51603;BME280;37954;51.980;5.850;2023-02-18T22:52:11;101385.78;;;10.92;99.21
51603;BME280;37954;51.980;5.850;2023-02-18T22:56:25;101393.84;;;10.92;99.49
51603;BME280;37954;51.980;5.850;2023-02-18T23:00:36;101394.47;;;11.00;99.06
51603;BME280;37954;51.980;5.850;2023-02-18T23:04:48;101378.75;;;10.97;99.11
51603;BME280;37954;51.980;5.850;2023-02-18T23:09:00;101380.41;;;10.92;98.86
51603;BME280;37954;51.980;5.850;2023-02-18T23:13:12;101382.69;;;10.95;98.67
51603;BME280;37954;51.980;5.850;2023-02-18T23:17:23;101395.50;;;10.93;98.80
51603;BME280;37954;51.980;5.850;2023-02-18T23:21:35;101389.53;;;10.91;98.53
51603;BME280;37954;51.980;5.850;2023-02-18T23:25:47;101377.53;;;10.80;98.45
51603;BME280;37954;51.980;5.850;2023-02-18T23:29:58;101385.56;;;10.93;98.49
51603;BME280;37954;51.980;5.850;2023-02-18T23:34:13;101379.00;;;10.89;98.12
51603;BME280;37954;51.980;5.850;2023-02-18T23:38:25;101383.94;;;10.92;98.18
51603;BME280;37954;51.980;5.850;2023-02-18T23:42:36;101378.38;;;10.87;98.29
51603;BME280;37954;51.980;5.850;2023-02-18T23:46:49;101382.31;;;10.85;98.69
51603;BME280;37954;51.980;5.850;2023-02-18T23:51:03;101357.50;;;10.82;98.46
51603;BME280;37954;51.980;5.850;2023-02-18T23:55:15;101363.31;;;10.73;98.87
51603;BME280;37954;51.980;5.850;2023-02-18T23:59:27;101367.41;;;10.75;98.72
